sensor_id;sensor_type;location;lat;lon;timestamp;P1;durP1;ratioP1;P2;durP2;ratioP2
29238;SDS011;16267;48.194;11.546;2023-05-03T00:01:00;8.85;;;6.70;;
29238;SDS011;16267;48.194;11.546;2023-05-03T00:03:26;8.98;;;6.80;;
29238;SDS011;16267;48.194;11.546;2023-05-03T00:05:53;9.90;;;6.45;;
29238;SDS011;16267;48.194;11.546;2023-05-03T00:08:18;10.85;;;7.60;;
29238;SDS011;16267;48.194;11.546;2023-05-03T00:10:45;9.43;;;6.88;;
29238;SDS011;16267;48.194;11.546;2023-05-03T00:13:15;12.70;;;6.93;;
29238;SDS011;16267;48.194;11.546;2023-05-03T00:15:41;8.57;;;6.18;;
29238;SDS011;16267;48.194;11.546;2023-05-03T00:18:07;10.38;;;6.82;;
29238;SDS011;16267;48.194;11.546;2023-05-03T00:20:32;12.20;;;6.57;;
29238;SDS011;16267;48.194;11.546;2023-05-03T00:22:58;8.88;;;6.85;;
29238;SDS011;16267;48.194;11.546;2023-05-03T00:25:26;8.10;;;6.07;;
29238;SDS011;16267;48.194;11.546;2023-05-03T00:27:51;9.23;;;6.57;;
29238;SDS011;16267;48.194;11.546;2023-05-03T00:30:17;10.57;;;6.90;;
29238;SDS011;16267;48.194;11.546;2023-05-03T00:32:43;12.63;;;7.30;;
29238;SDS011;16267;48.194;11.546;2023-05-03T00:35:09;8.65;;;6.50;;
29238;SDS011;16267;48.194;11.546;2023-05-03T00:37:35;10.43;;;7.43;;
29238;SDS011;16267;48.194;11.546;2023-05-03T00:40:01;10.00;;;7.35;;
29238;SDS011;16267;48.194;11.546;2023-05-03T00:42:28;9.43;;;6.53;;
29238;SDS011;16267;48.194;11.546;2023-05-03T00:44:54;11.82;;;7.22;;
29238;SDS011;16267;48.194;11.546;2023-05-03T00:47:20;11.90;;;7.28;;
29238;SDS011;16267;48.194;11.546;2023-05-03T00:49:46;11.20;;;6.93;;
29238;SDS011;16267;48.194;11.546;2023-05-03T00:52:12;11.43;;;6.93;;
29238;SDS011;16267;48.194;11.546;2023-05-03T00:54:38;10.57;;;7.22;;
29238;SDS011;16267;48.194;11.546;2023-05-03T00:57:04;8.95;;;6.80;;
29238;SDS011;16267;48.194;11.546;2023-05-03T00:59:31;8.50;;;7.05;;
29238;SDS011;16267;48.194;11.546;2023-05-03T01:01:58;10.52;;;7.20;;
29238;SDS011;16267;48.194;11.546;2023-05-03T01:04:24;8.35;;;6.75;;
29238;SDS011;16267;48.194;11.546;2023-05-03T01:06:51;10.32;;;7.28;;
29238;SDS011;16267;48.194;11.546;2023-05-03T01:09:33;12.93;;;6.85;;
29238;SDS011;16267;48.194;11.546;2023-05-03T01:12:28;9.45;;;6.88;;
29238;SDS011;16267;48.194;11.546;2023-05-03T01:18:04;9.32;;;6.40;;
29238;SDS011;16267;48.194;11.546;2023-05-03T01:23:32;11.85;;;7.13;;
29238;SDS011;16267;48.194;11.546;2023-05-03T01:26:18;9.68;;;7.07;;
29238;SDS011;16267;48.194;11.546;2023-05-03T01:28:45;13.50;;;6.53;;
29238;SDS011;16267;48.194;11.546;2023-05-03T01:31:13;8.65;;;6.57;;
29238;SDS011;16267;48.194;11.546;2023-05-03T01:36:42;7.57;;;6.32;;
29238;SDS011;16267;48.194;11.546;2023-05-03T01:39:17;11.45;;;7.15;;
29238;SDS011;16267;48.194;11.546;2023-05-03T01:41:52;10.45;;;7.10;;
29238;SDS011;16267;48.194;11.546;2023-05-03T01:44:19;8.77;;;7.07;;
29238;SDS011;16267;48.194;11.546;2023-05-03T01:46:46;9.00;;;7.05;;
29238;SDS011;16267;48.194;11.546;2023-05-03T01:51:52;10.43;;;6.45;;
29238;SDS011;16267;48.194;11.546;2023-05-03T01:54:18;9.55;;;6.60;;
29238;SDS011;16267;48.194;11.546;2023-05-03T01:56:44;9.68;;;6.47;;
29238;SDS011;16267;48.194;11.546;2023-05-03T01:59:10;8.52;;;6.45;;
29238;SDS011;16267;48.194;11.546;2023-05-03T02:01:36;8.35;;;6.78;;
29238;SDS011;16267;48.194;11.546;2023-05-03T02:04:02;10.63;;;6.63;;
29238;SDS011;16267;48.194;11.546;2023-05-03T02:06:28;9.30;;;6.45;;
29238;SDS011;16267;48.194;11.546;2023-05-03T02:08:53;14.70;;;6.82;;
29238;SDS011;16267;48.194;11.546;2023-05-03T02:11:19;9.30;;;6.57;;
29238;SDS011;16267;48.194;11.546;2023-05-03T02:13:47;9.95;;;6.57;;
29238;SDS011;16267;48.194;11.546;2023-05-03T02:16:16;8.65;;;6.75;;
29238;SDS011;16267;48.194;11.546;2023-05-03T02:18:42;8.38;;;6.93;;
29238;SDS011;16267;48.194;11.546;2023-05-03T02:21:08;8.45;;;6.35;;
29238;SDS011;16267;48.194;11.546;2023-05-03T02:23:34;8.70;;;6.88;;
29238;SDS011;16267;48.194;11.546;2023-05-03T02:26:00;8.45;;;6.47;;
29238;SDS011;16267;48.194;11.546;2023-05-03T02:28:26;9.40;;;6.47;;
29238;SDS011;16267;48.194;11.546;2023-05-03T02:30:52;9.35;;;6.80;;
29238;SDS011;16267;48.194;11.546;2023-05-03T02:33:18;11.48;;;6.47;;
29238;SDS011;16267;48.194;11.546;2023-05-03T02:35:44;9.07;;;6.95;;
29238;SDS011;16267;48.194;11.546;2023-05-03T02:38:11;11.10;;;7.15;;
29238;SDS011;16267;48.194;11.546;2023-05-03T02:40:36;9.05;;;6.78;;
29238;SDS011;16267;48.194;11.546;2023-05-03T02:43:02;10.25;;;7.18;;
29238;SDS011;16267;48.194;11.546;2023-05-03T02:45:28;9.90;;;7.05;;
29238;SDS011;16267;48.194;11.546;2023-05-03T02:47:54;10.82;;;7.25;;
29238;SDS011;16267;48.194;11.546;2023-05-03T02:50:19;11.85;;;8.40;;
29238;SDS011;16267;48.194;11.546;2023-05-03T02:52:45;12.43;;;8.45;;
29238;SDS011;16267;48.194;11.546;2023-05-03T02:55:11;11.85;;;9.25;;
29238;SDS011;16267;48.194;11.546;2023-05-03T02:57:37;14.68;;;11.32;;
29238;SDS011;16267;48.194;11.546;2023-05-03T03:00:03;14.02;;;9.05;;
29238;SDS011;16267;48.194;11.546;2023-05-03T03:02:31;25.55;;;11.60;;
29238;SDS011;16267;48.194;11.546;2023-05-03T03:04:57;17.05;;;11.48;;
29238;SDS011;16267;48.194;11.546;2023-05-03T03:07:23;14.02;;;10.45;;
29238;SDS011;16267;48.194;11.546;2023-05-03T03:09:49;20.38;;;11.70;;
29238;SDS011;16267;48.194;11.546;2023-05-03T03:12:15;14.52;;;11.18;;
29238;SDS011;16267;48.194;11.546;2023-05-03T03:14:41;15.93;;;11.07;;
29238;SDS011;16267;48.194;11.546;2023-05-03T03:17:09;17.33;;;11.27;;
29238;SDS011;16267;48.194;11.546;2023-05-03T03:19:36;14.07;;;10.82;;
29238;SDS011;16267;48.194;11.546;2023-05-03T03:22:01;14.75;;;9.65;;
29238;SDS011;16267;48.194;11.546;2023-05-03T03:24:27;12.63;;;9.43;;
29238;SDS011;16267;48.194;11.546;2023-05-03T03:26:53;16.75;;;11.10;;
29238;SDS011;16267;48.194;11.546;2023-05-03T03:29:19;14.27;;;10.32;;
29238;SDS011;16267;48.194;11.546;2023-05-03T03:31:44;15.60;;;10.45;;
29238;SDS011;16267;48.194;11.546;2023-05-03T03:34:13;15.15;;;9.90;;
29238;SDS011;16267;48.194;11.546;2023-05-03T03:36:39;14.02;;;9.68;;
29238;SDS011;16267;48.194;11.546;2023-05-03T03:39:05;13.52;;;10.55;;
29238;SDS011;16267;48.194;11.546;2023-05-03T03:41:31;15.43;;;10.55;;
29238;SDS011;16267;48.194;11.546;2023-05-03T03:43:57;14.15;;;10.13;;
29238;SDS011;16267;48.194;11.546;2023-05-03T03:46:23;13.98;;;10.18;;
29238;SDS011;16267;48.194;11.546;2023-05-03T03:48:49;16.80;;;11.10;;
29238;SDS011;16267;48.194;11.546;2023-05-03T03:51:15;16.70;;;11.20;;
29238;SDS011;16267;48.194;11.546;2023-05-03T03:53:43;29.33;;;11.43;;
29238;SDS011;16267;48.194;11.546;2023-05-03T03:56:09;15.95;;;11.70;;
29238;SDS011;16267;48.194;11.546;2023-05-03T03:58:34;17.15;;;12.35;;
29238;SDS011;16267;48.194;11.546;2023-05-03T04:01:01;117.38;;;13.75;;
29238;SDS011;16267;48.194;11.546;2023-05-03T04:03:30;15.52;;;11.40;;
29238;SDS011;16267;48.194;11.546;2023-05-03T04:05:57;26.83;;;12.05;;
29238;SDS011;16267;48.194;11.546;2023-05-03T04:08:23;30.23;;;11.68;;
29238;SDS011;16267;48.194;11.546;2023-05-03T04:10:49;30.83;;;11.45;;
29238;SDS011;16267;48.194;11.546;2023-05-03T04:13:15;92.32;;;11.48;;
29238;SDS011;16267;48.194;11.546;2023-05-03T04:15:41;33.35;;;11.88;;
29238;SDS011;16267;48.194;11.546;2023-05-03T04:18:06;102.20;;;12.20;;
29238;SDS011;16267;48.194;11.546;2023-05-03T04:20:32;30.45;;;11.82;;
29238;SDS011;16267;48.194;11.546;2023-05-03T04:22:59;62.47;;;11.55;;
29238;SDS011;16267;48.194;11.546;2023-05-03T04:25:26;52.28;;;12.10;;
29238;SDS011;16267;48.194;11.546;2023-05-03T04:27:52;95.15;;;12.50;;
29238;SDS011;16267;48.194;11.546;2023-05-03T04:30:19;42.70;;;10.88;;
29238;SDS011;16267;48.194;11.546;2023-05-03T04:32:46;17.23;;;9.98;;
29238;SDS011;16267;48.194;11.546;2023-05-03T04:35:12;12.35;;;9.40;;
29238;SDS011;16267;48.194;11.546;2023-05-03T04:37:38;16.10;;;9.30;;
29238;SDS011;16267;48.194;11.546;2023-05-03T04:40:06;14.63;;;10.77;;
29238;SDS011;16267;48.194;11.546;2023-05-03T04:42:32;12.50;;;9.35;;
29238;SDS011;16267;48.194;11.546;2023-05-03T04:44:59;12.95;;;9.13;;
29238;SDS011;16267;48.194;11.546;2023-05-03T04:47:27;11.15;;;8.82;;
29238;SDS011;16267;48.194;11.546;2023-05-03T04:49:54;11.68;;;9.07;;
29238;SDS011;16267;48.194;11.546;2023-05-03T04:52:20;13.90;;;10.07;;
29238;SDS011;16267;48.194;11.546;2023-05-03T04:54:46;12.90;;;9.50;;
29238;SDS011;16267;48.194;11.546;2023-05-03T04:57:11;13.18;;;9.73;;
29238;SDS011;16267;48.194;11.546;2023-05-03T04:59:37;17.52;;;9.82;;
29238;SDS011;16267;48.194;11.546;2023-05-03T05:02:03;21.17;;;11.38;;
29238;SDS011;16267;48.194;11.546;2023-05-03T05:04:29;14.95;;;10.38;;
29238;SDS011;16267;48.194;11.546;2023-05-03T05:06:55;14.57;;;10.50;;
29238;SDS011;16267;48.194;11.546;2023-05-03T05:09:21;60.78;;;10.77;;
29238;SDS011;16267;48.194;11.546;2023-05-03T05:11:49;13.07;;;9.93;;
29238;SDS011;16267;48.194;11.546;2023-05-03T05:14:16;23.27;;;10.18;;
29238;SDS011;16267;48.194;11.546;2023-05-03T05:16:42;22.15;;;10.40;;
29238;SDS011;16267;48.194;11.546;2023-05-03T05:19:08;13.90;;;10.30;;
29238;SDS011;16267;48.194;11.546;2023-05-03T05:21:33;13.25;;;10.25;;
29238;SDS011;16267;48.194;11.546;2023-05-03T05:23:59;17.25;;;11.32;;
29238;SDS011;16267;48.194;11.546;2023-05-03T05:26:26;16.92;;;12.32;;
29238;SDS011;16267;48.194;11.546;2023-05-03T05:28:52;17.98;;;11.75;;
29238;SDS011;16267;48.194;11.546;2023-05-03T05:31:19;16.85;;;11.23;;
29238;SDS011;16267;48.194;11.546;2023-05-03T05:33:45;18.77;;;12.55;;
29238;SDS011;16267;48.194;11.546;2023-05-03T05:36:10;25.10;;;13.40;;
29238;SDS011;16267;48.194;11.546;2023-05-03T05:38:36;17.88;;;12.65;;
29238;SDS011;16267;48.194;11.546;2023-05-03T05:41:02;16.55;;;11.82;;
29238;SDS011;16267;48.194;11.546;2023-05-03T05:43:28;20.20;;;13.15;;
29238;SDS011;16267;48.194;11.546;2023-05-03T05:45:53;21.88;;;12.80;;
29238;SDS011;16267;48.194;11.546;2023-05-03T05:48:19;18.02;;;12.88;;
29238;SDS011;16267;48.194;11.546;2023-05-03T05:50:45;21.02;;;13.68;;
29238;SDS011;16267;48.194;11.546;2023-05-03T05:53:10;24.48;;;14.68;;
29238;SDS011;16267;48.194;11.546;2023-05-03T05:55:36;24.58;;;15.02;;
29238;SDS011;16267;48.194;11.546;2023-05-03T05:58:02;31.05;;;16.95;;
29238;SDS011;16267;48.194;11.546;2023-05-03T06:00:28;25.60;;;16.25;;
29238;SDS011;16267;48.194;11.546;2023-05-03T06:02:54;26.88;;;17.60;;
29238;SDS011;16267;48.194;11.546;2023-05-03T06:05:20;31.08;;;16.55;;
29238;SDS011;16267;48.194;11.546;2023-05-03T06:07:46;34.58;;;16.73;;
29238;SDS011;16267;48.194;11.546;2023-05-03T06:10:13;25.75;;;15.38;;
29238;SDS011;16267;48.194;11.546;2023-05-03T06:12:39;27.75;;;16.05;;
29238;SDS011;16267;48.194;11.546;2023-05-03T06:15:05;41.55;;;16.15;;
29238;SDS011;16267;48.194;11.546;2023-05-03T06:17:32;26.58;;;16.15;;
29238;SDS011;16267;48.194;11.546;2023-05-03T06:19:59;40.35;;;17.00;;
29238;SDS011;16267;48.194;11.546;2023-05-03T06:22:24;34.25;;;14.43;;
29238;SDS011;16267;48.194;11.546;2023-05-03T06:24:50;26.55;;;14.82;;
29238;SDS011;16267;48.194;11.546;2023-05-03T06:27:16;23.67;;;14.82;;
29238;SDS011;16267;48.194;11.546;2023-05-03T06:29:43;25.38;;;14.98;;
29238;SDS011;16267;48.194;11.546;2023-05-03T06:32:09;26.80;;;16.42;;
29238;SDS011;16267;48.194;11.546;2023-05-03T06:34:35;26.15;;;15.73;;
29238;SDS011;16267;48.194;11.546;2023-05-03T06:37:01;30.35;;;16.92;;
29238;SDS011;16267;48.194;11.546;2023-05-03T06:39:27;29.30;;;16.83;;
29238;SDS011;16267;48.194;11.546;2023-05-03T06:41:53;26.67;;;16.23;;
29238;SDS011;16267;48.194;11.546;2023-05-03T06:44:19;24.83;;;15.68;;
29238;SDS011;16267;48.194;11.546;2023-05-03T06:46:44;26.30;;;16.90;;
29238;SDS011;16267;48.194;11.546;2023-05-03T06:49:11;24.73;;;16.73;;
29238;SDS011;16267;48.194;11.546;2023-05-03T06:51:37;28.20;;;17.50;;
29238;SDS011;16267;48.194;11.546;2023-05-03T06:54:02;29.17;;;16.77;;
29238;SDS011;16267;48.194;11.546;2023-05-03T06:56:33;29.25;;;18.02;;
29238;SDS011;16267;48.194;11.546;2023-05-03T06:59:01;30.60;;;17.85;;
29238;SDS011;16267;48.194;11.546;2023-05-03T07:01:28;37.08;;;19.63;;
29238;SDS011;16267;48.194;11.546;2023-05-03T07:03:55;36.83;;;21.10;;
29238;SDS011;16267;48.194;11.546;2023-05-03T07:06:21;35.55;;;20.20;;
29238;SDS011;16267;48.194;11.546;2023-05-03T07:08:51;37.28;;;19.63;;
29238;SDS011;16267;48.194;11.546;2023-05-03T07:11:18;40.08;;;20.60;;
29238;SDS011;16267;48.194;11.546;2023-05-03T07:13:53;39.00;;;19.75;;
29238;SDS011;16267;48.194;11.546;2023-05-03T07:16:19;40.92;;;20.00;;
29238;SDS011;16267;48.194;11.546;2023-05-03T07:18:49;36.88;;;19.67;;
29238;SDS011;16267;48.194;11.546;2023-05-03T07:21:15;39.65;;;21.70;;
29238;SDS011;16267;48.194;11.546;2023-05-03T07:23:40;41.17;;;21.45;;
29238;SDS011;16267;48.194;11.546;2023-05-03T07:26:08;41.65;;;23.05;;
29238;SDS011;16267;48.194;11.546;2023-05-03T07:28:34;42.00;;;23.13;;
29238;SDS011;16267;48.194;11.546;2023-05-03T07:31:00;37.83;;;21.92;;
29238;SDS011;16267;48.194;11.546;2023-05-03T07:33:27;37.65;;;22.77;;
29238;SDS011;16267;48.194;11.546;2023-05-03T07:35:53;38.50;;;22.05;;
29238;SDS011;16267;48.194;11.546;2023-05-03T07:38:19;36.10;;;21.38;;
29238;SDS011;16267;48.194;11.546;2023-05-03T07:40:46;44.72;;;24.02;;
29238;SDS011;16267;48.194;11.546;2023-05-03T07:43:12;36.42;;;22.77;;
29238;SDS011;16267;48.194;11.546;2023-05-03T07:45:38;42.10;;;23.23;;
29238;SDS011;16267;48.194;11.546;2023-05-03T07:48:04;43.92;;;23.40;;
29238;SDS011;16267;48.194;11.546;2023-05-03T07:50:30;42.28;;;23.50;;
29238;SDS011;16267;48.194;11.546;2023-05-03T07:52:56;45.15;;;24.52;;
29238;SDS011;16267;48.194;11.546;2023-05-03T07:55:22;44.22;;;24.27;;
29238;SDS011;16267;48.194;11.546;2023-05-03T07:57:49;42.97;;;25.02;;
29238;SDS011;16267;48.194;11.546;2023-05-03T08:00:16;44.67;;;26.75;;
29238;SDS011;16267;48.194;11.546;2023-05-03T08:02:44;46.08;;;25.77;;
29238;SDS011;16267;48.194;11.546;2023-05-03T08:05:10;41.20;;;25.75;;
29238;SDS011;16267;48.194;11.546;2023-05-03T08:07:38;41.90;;;24.80;;
29238;SDS011;16267;48.194;11.546;2023-05-03T08:10:05;41.58;;;24.60;;
29238;SDS011;16267;48.194;11.546;2023-05-03T08:12:32;47.58;;;25.95;;
29238;SDS011;16267;48.194;11.546;2023-05-03T08:14:58;43.75;;;26.77;;
29238;SDS011;16267;48.194;11.546;2023-05-03T08:17:24;45.40;;;27.15;;
29238;SDS011;16267;48.194;11.546;2023-05-03T08:19:51;41.95;;;25.30;;
29238;SDS011;16267;48.194;11.546;2023-05-03T08:22:20;40.00;;;24.17;;
29238;SDS011;16267;48.194;11.546;2023-05-03T08:24:46;44.25;;;26.48;;
29238;SDS011;16267;48.194;11.546;2023-05-03T08:27:11;41.83;;;25.95;;
29238;SDS011;16267;48.194;11.546;2023-05-03T08:29:37;39.08;;;24.55;;
29238;SDS011;16267;48.194;11.546;2023-05-03T08:32:03;44.50;;;26.70;;
29238;SDS011;16267;48.194;11.546;2023-05-03T08:34:29;44.40;;;26.27;;
29238;SDS011;16267;48.194;11.546;2023-05-03T08:36:56;40.53;;;25.17;;
29238;SDS011;16267;48.194;11.546;2023-05-03T08:39:22;45.55;;;26.85;;
29238;SDS011;16267;48.194;11.546;2023-05-03T08:41:54;49.90;;;27.58;;
29238;SDS011;16267;48.194;11.546;2023-05-03T08:44:21;43.42;;;25.50;;
29238;SDS011;16267;48.194;11.546;2023-05-03T08:46:48;40.20;;;25.70;;
29238;SDS011;16267;48.194;11.546;2023-05-03T08:49:15;41.17;;;25.70;;
29238;SDS011;16267;48.194;11.546;2023-05-03T08:51:43;41.13;;;25.83;;
29238;SDS011;16267;48.194;11.546;2023-05-03T08:54:11;45.00;;;25.65;;
29238;SDS011;16267;48.194;11.546;2023-05-03T08:56:39;40.92;;;24.90;;
29238;SDS011;16267;48.194;11.546;2023-05-03T08:59:06;44.25;;;26.70;;
29238;SDS011;16267;48.194;11.546;2023-05-03T09:01:39;39.25;;;25.52;;
29238;SDS011;16267;48.194;11.546;2023-05-03T09:06:33;46.22;;;26.17;;
29238;SDS011;16267;48.194;11.546;2023-05-03T09:09:00;47.97;;;27.20;;
29238;SDS011;16267;48.194;11.546;2023-05-03T09:11:31;41.10;;;25.70;;
29238;SDS011;16267;48.194;11.546;2023-05-03T09:16:41;45.65;;;27.02;;
29238;SDS011;16267;48.194;11.546;2023-05-03T09:19:09;46.25;;;26.90;;
29238;SDS011;16267;48.194;11.546;2023-05-03T09:21:40;47.55;;;28.15;;
29238;SDS011;16267;48.194;11.546;2023-05-03T09:24:15;45.47;;;27.00;;
29238;SDS011;16267;48.194;11.546;2023-05-03T09:26:44;42.60;;;26.70;;
29238;SDS011;16267;48.194;11.546;2023-05-03T09:29:27;41.25;;;25.00;;
29238;SDS011;16267;48.194;11.546;2023-05-03T09:31:59;45.63;;;26.98;;
29238;SDS011;16267;48.194;11.546;2023-05-03T09:34:29;42.08;;;26.55;;
29238;SDS011;16267;48.194;11.546;2023-05-03T09:36:56;43.03;;;27.40;;
29238;SDS011;16267;48.194;11.546;2023-05-03T09:39:22;43.08;;;27.02;;
29238;SDS011;16267;48.194;11.546;2023-05-03T09:41:48;43.47;;;26.95;;
29238;SDS011;16267;48.194;11.546;2023-05-03T09:44:13;44.22;;;26.42;;
29238;SDS011;16267;48.194;11.546;2023-05-03T09:47:00;37.13;;;25.90;;
29238;SDS011;16267;48.194;11.546;2023-05-03T09:49:30;42.22;;;26.75;;
29238;SDS011;16267;48.194;11.546;2023-05-03T09:52:01;39.58;;;26.70;;
29238;SDS011;16267;48.194;11.546;2023-05-03T09:54:28;42.90;;;26.63;;
29238;SDS011;16267;48.194;11.546;2023-05-03T09:56:59;37.22;;;24.00;;
29238;SDS011;16267;48.194;11.546;2023-05-03T09:59:26;43.17;;;26.48;;
29238;SDS011;16267;48.194;11.546;2023-05-03T10:01:54;35.78;;;24.65;;
29238;SDS011;16267;48.194;11.546;2023-05-03T10:04:24;41.75;;;27.70;;
29238;SDS011;16267;48.194;11.546;2023-05-03T10:06:52;39.42;;;25.38;;
29238;SDS011;16267;48.194;11.546;2023-05-03T10:12:03;41.65;;;26.15;;
29238;SDS011;16267;48.194;11.546;2023-05-03T10:14:32;42.53;;;26.95;;
29238;SDS011;16267;48.194;11.546;2023-05-03T10:16:59;35.67;;;25.95;;
29238;SDS011;16267;48.194;11.546;2023-05-03T10:19:34;45.67;;;27.95;;
29238;SDS011;16267;48.194;11.546;2023-05-03T10:22:25;37.38;;;25.55;;
29238;SDS011;16267;48.194;11.546;2023-05-03T10:30:26;38.38;;;26.67;;
29238;SDS011;16267;48.194;11.546;2023-05-03T10:33:27;42.40;;;27.15;;
29238;SDS011;16267;48.194;11.546;2023-05-03T10:35:56;34.97;;;24.65;;
29238;SDS011;16267;48.194;11.546;2023-05-03T10:38:25;36.25;;;25.13;;
29238;SDS011;16267;48.194;11.546;2023-05-03T10:40:53;36.13;;;25.33;;
29238;SDS011;16267;48.194;11.546;2023-05-03T10:48:29;34.22;;;25.23;;
29238;SDS011;16267;48.194;11.546;2023-05-03T10:50:57;37.08;;;27.75;;
29238;SDS011;16267;48.194;11.546;2023-05-03T10:54:00;37.33;;;27.13;;
29238;SDS011;16267;48.194;11.546;2023-05-03T10:56:26;45.80;;;26.25;;
29238;SDS011;16267;48.194;11.546;2023-05-03T10:58:52;35.03;;;24.35;;
29238;SDS011;16267;48.194;11.546;2023-05-03T11:01:22;35.75;;;23.88;;
29238;SDS011;16267;48.194;11.546;2023-05-03T11:03:59;36.03;;;24.92;;
29238;SDS011;16267;48.194;11.546;2023-05-03T11:06:36;34.47;;;23.67;;
29238;SDS011;16267;48.194;11.546;2023-05-03T11:09:05;32.90;;;24.33;;
29238;SDS011;16267;48.194;11.546;2023-05-03T11:11:33;34.13;;;23.70;;
29238;SDS011;16267;48.194;11.546;2023-05-03T11:14:01;30.73;;;23.13;;
29238;SDS011;16267;48.194;11.546;2023-05-03T11:16:28;29.48;;;21.63;;
29238;SDS011;16267;48.194;11.546;2023-05-03T11:18:54;26.85;;;22.00;;
29238;SDS011;16267;48.194;11.546;2023-05-03T11:21:21;27.75;;;22.15;;
29238;SDS011;16267;48.194;11.546;2023-05-03T11:23:47;27.85;;;20.15;;
29238;SDS011;16267;48.194;11.546;2023-05-03T11:26:13;29.95;;;22.88;;
29238;SDS011;16267;48.194;11.546;2023-05-03T11:28:40;23.98;;;20.40;;
29238;SDS011;16267;48.194;11.546;2023-05-03T11:31:08;27.75;;;21.00;;
29238;SDS011;16267;48.194;11.546;2023-05-03T11:33:35;25.35;;;19.98;;
29238;SDS011;16267;48.194;11.546;2023-05-03T11:36:03;23.23;;;18.50;;
29238;SDS011;16267;48.194;11.546;2023-05-03T11:38:34;25.08;;;18.98;;
29238;SDS011;16267;48.194;11.546;2023-05-03T11:43:54;23.20;;;18.08;;
29238;SDS011;16267;48.194;11.546;2023-05-03T11:46:21;23.05;;;17.65;;
29238;SDS011;16267;48.194;11.546;2023-05-03T11:48:49;23.52;;;18.20;;
29238;SDS011;16267;48.194;11.546;2023-05-03T11:51:16;21.65;;;17.67;;
29238;SDS011;16267;48.194;11.546;2023-05-03T11:53:49;22.92;;;16.65;;
29238;SDS011;16267;48.194;11.546;2023-05-03T11:56:16;19.30;;;15.50;;
29238;SDS011;16267;48.194;11.546;2023-05-03T12:01:25;23.60;;;15.90;;
29238;SDS011;16267;48.194;11.546;2023-05-03T12:03:56;19.63;;;15.52;;
29238;SDS011;16267;48.194;11.546;2023-05-03T12:06:26;15.20;;;12.52;;
29238;SDS011;16267;48.194;11.546;2023-05-03T12:08:55;18.92;;;14.60;;
29238;SDS011;16267;48.194;11.546;2023-05-03T12:11:25;18.85;;;13.98;;
29238;SDS011;16267;48.194;11.546;2023-05-03T12:13:57;19.23;;;13.45;;
29238;SDS011;16267;48.194;11.546;2023-05-03T12:16:26;16.85;;;12.98;;
29238;SDS011;16267;48.194;11.546;2023-05-03T12:18:53;18.30;;;13.02;;
29238;SDS011;16267;48.194;11.546;2023-05-03T12:21:24;15.20;;;11.57;;
29238;SDS011;16267;48.194;11.546;2023-05-03T12:24:06;15.75;;;12.88;;
29238;SDS011;16267;48.194;11.546;2023-05-03T12:26:33;14.75;;;11.10;;
29238;SDS011;16267;48.194;11.546;2023-05-03T12:28:59;15.00;;;10.70;;
29238;SDS011;16267;48.194;11.546;2023-05-03T12:31:25;12.68;;;9.85;;
29238;SDS011;16267;48.194;11.546;2023-05-03T12:33:53;12.68;;;9.88;;
29238;SDS011;16267;48.194;11.546;2023-05-03T12:36:19;14.15;;;11.98;;
29238;SDS011;16267;48.194;11.546;2023-05-03T12:38:45;14.18;;;11.63;;
29238;SDS011;16267;48.194;11.546;2023-05-03T12:41:11;14.48;;;11.55;;
29238;SDS011;16267;48.194;11.546;2023-05-03T12:43:38;16.60;;;11.32;;
29238;SDS011;16267;48.194;11.546;2023-05-03T12:46:03;15.27;;;12.52;;
29238;SDS011;16267;48.194;11.546;2023-05-03T12:48:29;18.15;;;12.95;;
29238;SDS011;16267;48.194;11.546;2023-05-03T12:50:55;17.90;;;13.10;;
29238;SDS011;16267;48.194;11.546;2023-05-03T12:53:22;14.93;;;11.63;;
29238;SDS011;16267;48.194;11.546;2023-05-03T12:55:49;15.63;;;13.15;;
29238;SDS011;16267;48.194;11.546;2023-05-03T12:58:15;15.13;;;13.50;;
29238;SDS011;16267;48.194;11.546;2023-05-03T13:00:42;17.75;;;12.70;;
29238;SDS011;16267;48.194;11.546;2023-05-03T13:03:09;15.88;;;13.70;;
29238;SDS011;16267;48.194;11.546;2023-05-03T13:05:34;15.10;;;12.88;;
29238;SDS011;16267;48.194;11.546;2023-05-03T13:08:01;15.63;;;12.57;;
29238;SDS011;16267;48.194;11.546;2023-05-03T13:10:28;16.55;;;11.60;;
29238;SDS011;16267;48.194;11.546;2023-05-03T13:12:54;15.85;;;12.88;;
29238;SDS011;16267;48.194;11.546;2023-05-03T13:15:21;14.02;;;11.70;;
29238;SDS011;16267;48.194;11.546;2023-05-03T13:17:51;13.27;;;11.88;;
29238;SDS011;16267;48.194;11.546;2023-05-03T13:20:18;19.30;;;12.95;;
29238;SDS011;16267;48.194;11.546;2023-05-03T13:22:45;13.32;;;10.70;;
29238;SDS011;16267;48.194;11.546;2023-05-03T13:25:12;12.18;;;9.88;;
29238;SDS011;16267;48.194;11.546;2023-05-03T13:27:38;13.45;;;10.15;;
29238;SDS011;16267;48.194;11.546;2023-05-03T13:30:04;12.88;;;11.13;;
29238;SDS011;16267;48.194;11.546;2023-05-03T13:32:31;12.60;;;10.93;;
29238;SDS011;16267;48.194;11.546;2023-05-03T13:34:57;16.27;;;11.90;;
29238;SDS011;16267;48.194;11.546;2023-05-03T13:37:23;13.25;;;10.52;;
29238;SDS011;16267;48.194;11.546;2023-05-03T13:39:49;13.52;;;11.10;;
29238;SDS011;16267;48.194;11.546;2023-05-03T13:42:14;13.60;;;10.95;;
29238;SDS011;16267;48.194;11.546;2023-05-03T13:44:40;10.38;;;9.15;;
29238;SDS011;16267;48.194;11.546;2023-05-03T13:47:08;11.00;;;8.27;;
29238;SDS011;16267;48.194;11.546;2023-05-03T13:49:33;10.00;;;8.85;;
29238;SDS011;16267;48.194;11.546;2023-05-03T13:51:59;9.27;;;8.23;;
29238;SDS011;16267;48.194;11.546;2023-05-03T13:54:25;9.52;;;8.52;;
29238;SDS011;16267;48.194;11.546;2023-05-03T13:56:51;10.13;;;9.00;;
29238;SDS011;16267;48.194;11.546;2023-05-03T13:59:16;10.45;;;8.13;;
29238;SDS011;16267;48.194;11.546;2023-05-03T14:01:42;9.48;;;6.82;;
29238;SDS011;16267;48.194;11.546;2023-05-03T14:04:08;7.60;;;6.65;;
29238;SDS011;16267;48.194;11.546;2023-05-03T14:06:34;7.88;;;6.53;;
29238;SDS011;16267;48.194;11.546;2023-05-03T14:09:00;8.70;;;6.70;;
29238;SDS011;16267;48.194;11.546;2023-05-03T14:11:26;6.78;;;6.15;;
29238;SDS011;16267;48.194;11.546;2023-05-03T14:13:54;10.68;;;7.38;;
29238;SDS011;16267;48.194;11.546;2023-05-03T14:16:20;8.82;;;7.93;;
29238;SDS011;16267;48.194;11.546;2023-05-03T14:18:48;8.70;;;6.75;;
29238;SDS011;16267;48.194;11.546;2023-05-03T14:21:15;11.30;;;6.22;;
29238;SDS011;16267;48.194;11.546;2023-05-03T14:23:45;6.75;;;5.85;;
29238;SDS011;16267;48.194;11.546;2023-05-03T14:26:12;6.57;;;4.78;;
29238;SDS011;16267;48.194;11.546;2023-05-03T14:28:38;6.57;;;5.20;;
29238;SDS011;16267;48.194;11.546;2023-05-03T14:31:05;8.82;;;4.93;;
29238;SDS011;16267;48.194;11.546;2023-05-03T14:33:32;6.38;;;3.35;;
29238;SDS011;16267;48.194;11.546;2023-05-03T14:35:58;6.82;;;4.32;;
29238;SDS011;16267;48.194;11.546;2023-05-03T14:38:24;3.97;;;3.58;;
29238;SDS011;16267;48.194;11.546;2023-05-03T14:40:51;4.38;;;3.88;;
29238;SDS011;16267;48.194;11.546;2023-05-03T14:43:19;4.55;;;4.15;;
29238;SDS011;16267;48.194;11.546;2023-05-03T14:45:46;7.72;;;4.70;;
29238;SDS011;16267;48.194;11.546;2023-05-03T14:48:13;5.15;;;4.43;;
29238;SDS011;16267;48.194;11.546;2023-05-03T14:50:39;5.35;;;4.57;;
29238;SDS011;16267;48.194;11.546;2023-05-03T14:53:05;5.68;;;4.63;;